IBE035C LEBL-LEAS
Flight info
| Callsign | IBE035C |
|---|---|
| Flight time | 1h 7m |
| Altitude | 31000 |
| Route | GRAUS M601 POSSY/N0440F330 M601 BLV M190 LASKU/N0381F230 M190 AMAKA |
| Aircraft | A20N/M-SDE2E3FGHIRWXY/LB1 |
Departure
| Time | 2026-04-18 04:23 |
|---|---|
| Airport | Josep Tarradellas Barcelona-El Prat Airport (LEBL) |
Arrival
| Time | 2026-04-18 05:30 |
|---|---|
| Airport | Asturias Airport (LEAS) |
| Time | Latitude | Longitude | Altitude | Speed | Heading |
|---|---|---|---|---|---|
| 2026-04-18 03:59 | 41.29191 | 2.08067 | 12 ft | 0 kts | 155° |
| 2026-04-18 04:09 | 41.29190 | 2.08067 | 12 ft | 0 kts | 155° |
| 2026-04-18 04:10 | 41.29191 | 2.08067 | 12 ft | 1 kts | 155° |
| 2026-04-18 04:10 | 41.29204 | 2.08059 | 13 ft | 2 kts | 155° |
| 2026-04-18 04:10 | 41.29218 | 2.08050 | 13 ft | 2 kts | 155° |
| 2026-04-18 04:10 | 41.29232 | 2.08042 | 13 ft | 2 kts | 155° |
| 2026-04-18 04:11 | 41.29240 | 2.08037 | 13 ft | 2 kts | 156° |
| 2026-04-18 04:11 | 41.29252 | 2.08024 | 14 ft | 2 kts | 121° |
| 2026-04-18 04:11 | 41.29257 | 2.08005 | 14 ft | 2 kts | 95° |
| 2026-04-18 04:11 | 41.29256 | 2.07987 | 14 ft | 0 kts | 70° |
| 2026-04-18 04:12 | 41.29253 | 2.07980 | 14 ft | 1 kts | 65° |
| 2026-04-18 04:12 | 41.29252 | 2.07978 | 14 ft | 0 kts | 65° |
| 2026-04-18 04:13 | 41.29253 | 2.07981 | 14 ft | 1 kts | 65° |
| 2026-04-18 04:13 | 41.29267 | 2.08020 | 14 ft | 7 kts | 65° |
| 2026-04-18 04:14 | 41.29287 | 2.08078 | 14 ft | 8 kts | 65° |
| 2026-04-18 04:14 | 41.29309 | 2.08143 | 15 ft | 8 kts | 66° |
| 2026-04-18 04:14 | 41.29314 | 2.08158 | 15 ft | 9 kts | 66° |
| 2026-04-18 04:14 | 41.29331 | 2.08211 | 15 ft | 6 kts | 65° |
| 2026-04-18 04:15 | 41.29353 | 2.08274 | 15 ft | 7 kts | 65° |
| 2026-04-18 04:15 | 41.29370 | 2.08347 | 15 ft | 9 kts | 96° |
| 2026-04-18 04:15 | 41.29318 | 2.08411 | 14 ft | 12 kts | 157° |
| 2026-04-18 04:15 | 41.29234 | 2.08459 | 13 ft | 13 kts | 154° |
| 2026-04-18 04:16 | 41.29140 | 2.08517 | 12 ft | 15 kts | 155° |
| 2026-04-18 04:16 | 41.29047 | 2.08573 | 14 ft | 14 kts | 155° |
| 2026-04-18 04:16 | 41.28955 | 2.08628 | 15 ft | 14 kts | 156° |
| 2026-04-18 04:16 | 41.28875 | 2.08681 | 15 ft | 9 kts | 139° |
| 2026-04-18 04:17 | 41.28873 | 2.08761 | 17 ft | 9 kts | 65° |
| 2026-04-18 04:17 | 41.28901 | 2.08844 | 17 ft | 11 kts | 65° |
| 2026-04-18 04:17 | 41.28941 | 2.08956 | 19 ft | 14 kts | 65° |
| 2026-04-18 04:17 | 41.28988 | 2.09094 | 19 ft | 17 kts | 66° |
| 2026-04-18 04:18 | 41.29033 | 2.09231 | 19 ft | 14 kts | 65° |
| 2026-04-18 04:18 | 41.29073 | 2.09343 | 20 ft | 13 kts | 65° |
| 2026-04-18 04:18 | 41.29113 | 2.09462 | 19 ft | 14 kts | 66° |
| 2026-04-18 04:18 | 41.29158 | 2.09590 | 20 ft | 15 kts | 65° |
| 2026-04-18 04:19 | 41.29201 | 2.09716 | 21 ft | 14 kts | 66° |
| 2026-04-18 04:19 | 41.29245 | 2.09844 | 21 ft | 15 kts | 65° |
| 2026-04-18 04:19 | 41.29277 | 2.09937 | 21 ft | 8 kts | 69° |
| 2026-04-18 04:19 | 41.29280 | 2.10008 | 23 ft | 7 kts | 105° |
| 2026-04-18 04:20 | 41.29266 | 2.10053 | 23 ft | 0 kts | 112° |
| 2026-04-18 04:20 | 41.29266 | 2.10054 | 23 ft | 0 kts | 112° |
| 2026-04-18 04:20 | 41.29260 | 2.10072 | 23 ft | 4 kts | 112° |
| 2026-04-18 04:21 | 41.29244 | 2.10126 | 23 ft | 8 kts | 110° |
| 2026-04-18 04:21 | 41.29245 | 2.10216 | 24 ft | 10 kts | 70° |
| 2026-04-18 04:21 | 41.29240 | 2.10294 | 25 ft | 7 kts | 137° |
| 2026-04-18 04:21 | 41.29204 | 2.10281 | 25 ft | 5 kts | 246° |
| 2026-04-18 04:22 | 41.29200 | 2.10266 | 25 ft | 0 kts | 248° |
| 2026-04-18 04:22 | 41.29198 | 2.10260 | 25 ft | 6 kts | 247° |
| 2026-04-18 04:22 | 41.29053 | 2.09833 | 25 ft | 93 kts | 244° |
| 2026-04-18 04:22 | 41.28673 | 2.08733 | 31 ft | 162 kts | 246° |
| 2026-04-18 04:23 | 41.28175 | 2.07326 | 722 ft | 168 kts | 245° |
| 2026-04-18 04:23 | 41.27519 | 2.06068 | 1655 ft | 167 kts | 230° |
| 2026-04-18 04:23 | 41.26629 | 2.05026 | 2385 ft | 177 kts | 216° |
| 2026-04-18 04:23 | 41.25477 | 2.04228 | 2950 ft | 194 kts | 200° |
| 2026-04-18 04:24 | 41.24092 | 2.03825 | 3484 ft | 213 kts | 184° |
| 2026-04-18 04:24 | 41.22522 | 2.03938 | 4123 ft | 230 kts | 172° |
| 2026-04-18 04:24 | 41.20925 | 2.04111 | 5077 ft | 231 kts | 184° |
| 2026-04-18 04:24 | 41.19396 | 2.03399 | 5768 ft | 243 kts | 221° |
| 2026-04-18 04:25 | 41.18480 | 2.01499 | 6444 ft | 253 kts | 259° |
| 2026-04-18 04:25 | 41.18621 | 1.99141 | 7113 ft | 263 kts | 296° |
| 2026-04-18 04:25 | 41.19647 | 1.97056 | 7830 ft | 274 kts | 308° |
| 2026-04-18 04:25 | 41.20780 | 1.94962 | 8675 ft | 282 kts | 307° |
| 2026-04-18 04:26 | 41.21917 | 1.92784 | 9601 ft | 285 kts | 306° |
| 2026-04-18 04:26 | 41.23023 | 1.90630 | 10485 ft | 289 kts | 306° |
| 2026-04-18 04:26 | 41.24170 | 1.88376 | 11082 ft | 303 kts | 306° |
| 2026-04-18 04:26 | 41.25377 | 1.85996 | 11551 ft | 321 kts | 306° |
| 2026-04-18 04:27 | 41.26655 | 1.83459 | 12174 ft | 332 kts | 306° |
| 2026-04-18 04:27 | 41.27935 | 1.80908 | 12988 ft | 336 kts | 306° |
| 2026-04-18 04:27 | 41.29227 | 1.78329 | 13801 ft | 340 kts | 306° |
| 2026-04-18 04:27 | 41.30546 | 1.75694 | 14604 ft | 344 kts | 306° |
| 2026-04-18 04:28 | 41.31865 | 1.73055 | 15428 ft | 346 kts | 306° |
| 2026-04-18 04:28 | 41.33184 | 1.70412 | 16233 ft | 348 kts | 306° |
| 2026-04-18 04:28 | 41.34520 | 1.67736 | 17013 ft | 349 kts | 306° |
| 2026-04-18 04:28 | 41.35844 | 1.65079 | 17761 ft | 352 kts | 306° |
| 2026-04-18 04:29 | 41.37207 | 1.62341 | 18493 ft | 354 kts | 306° |
| 2026-04-18 04:29 | 41.38560 | 1.59626 | 19161 ft | 358 kts | 305° |
| 2026-04-18 04:29 | 41.39941 | 1.56849 | 19816 ft | 362 kts | 305° |
| 2026-04-18 04:29 | 41.41327 | 1.54059 | 20464 ft | 366 kts | 305° |
| 2026-04-18 04:30 | 41.42738 | 1.51215 | 21120 ft | 369 kts | 304° |
| 2026-04-18 04:30 | 41.44152 | 1.48361 | 21760 ft | 373 kts | 304° |
| 2026-04-18 04:30 | 41.45565 | 1.45504 | 22394 ft | 376 kts | 304° |
| 2026-04-18 04:30 | 41.47006 | 1.42591 | 23030 ft | 379 kts | 304° |
| 2026-04-18 04:31 | 41.48458 | 1.39650 | 23636 ft | 382 kts | 304° |
| 2026-04-18 04:31 | 41.49911 | 1.36707 | 24215 ft | 386 kts | 304° |
| 2026-04-18 04:31 | 41.51385 | 1.33713 | 24781 ft | 389 kts | 303° |
| 2026-04-18 04:31 | 41.52881 | 1.30663 | 25345 ft | 393 kts | 303° |
| 2026-04-18 04:32 | 41.54376 | 1.27613 | 25883 ft | 396 kts | 302° |
| 2026-04-18 04:32 | 41.55873 | 1.24559 | 26413 ft | 399 kts | 302° |
| 2026-04-18 04:32 | 41.57403 | 1.21438 | 26903 ft | 402 kts | 302° |
| 2026-04-18 04:32 | 41.58929 | 1.18321 | 27371 ft | 406 kts | 302° |
| 2026-04-18 04:33 | 41.60486 | 1.15143 | 27846 ft | 409 kts | 302° |
| 2026-04-18 04:33 | 41.62023 | 1.11999 | 28301 ft | 412 kts | 302° |
| 2026-04-18 04:33 | 41.63605 | 1.08763 | 28725 ft | 415 kts | 302° |
| 2026-04-18 04:33 | 41.65177 | 1.05543 | 29135 ft | 418 kts | 302° |
| 2026-04-18 04:34 | 41.66777 | 1.02263 | 29525 ft | 420 kts | 301° |
| 2026-04-18 04:34 | 41.68355 | 0.99025 | 29947 ft | 422 kts | 301° |
| 2026-04-18 04:34 | 41.69954 | 0.95742 | 30504 ft | 419 kts | 301° |
| 2026-04-18 04:34 | 41.71545 | 0.92473 | 31026 ft | 418 kts | 301° |
| 2026-04-18 04:35 | 41.73128 | 0.89214 | 31435 ft | 419 kts | 301° |
| 2026-04-18 04:35 | 41.74710 | 0.85952 | 31815 ft | 420 kts | 301° |
| 2026-04-18 04:35 | 41.76288 | 0.82695 | 32122 ft | 421 kts | 301° |
| 2026-04-18 04:36 | 41.79478 | 0.76100 | 32161 ft | 422 kts | 301° |
| 2026-04-18 04:36 | 41.82648 | 0.69530 | 32166 ft | 423 kts | 301° |
| 2026-04-18 04:37 | 41.85829 | 0.62922 | 32168 ft | 423 kts | 301° |
| 2026-04-18 04:37 | 41.89016 | 0.56290 | 32171 ft | 423 kts | 301° |
| 2026-04-18 04:38 | 41.92177 | 0.49688 | 32173 ft | 422 kts | 301° |
| 2026-04-18 04:38 | 41.95370 | 0.43010 | 32175 ft | 423 kts | 301° |
| 2026-04-18 04:39 | 41.98409 | 0.36323 | 32176 ft | 422 kts | 297° |
| 2026-04-18 04:39 | 42.01074 | 0.29331 | 32175 ft | 422 kts | 294° |
| 2026-04-18 04:40 | 42.03708 | 0.22254 | 32171 ft | 422 kts | 294° |
| 2026-04-18 04:40 | 42.06334 | 0.15225 | 32174 ft | 421 kts | 294° |
| 2026-04-18 04:41 | 42.08953 | 0.08218 | 32172 ft | 421 kts | 294° |
| 2026-04-18 04:41 | 42.11587 | 0.01181 | 32177 ft | 421 kts | 295° |
| 2026-04-18 04:42 | 42.14220 | -0.05852 | 32188 ft | 421 kts | 294° |
| 2026-04-18 04:42 | 42.16824 | -0.12882 | 32188 ft | 421 kts | 294° |
| 2026-04-18 04:43 | 42.19429 | -0.19953 | 32193 ft | 422 kts | 295° |
| 2026-04-18 04:43 | 42.22031 | -0.27005 | 32193 ft | 422 kts | 294° |
| 2026-04-18 04:44 | 42.24650 | -0.34102 | 32193 ft | 422 kts | 294° |
| 2026-04-18 04:44 | 42.27234 | -0.41152 | 32194 ft | 422 kts | 294° |
| 2026-04-18 04:45 | 42.29831 | -0.48273 | 32192 ft | 422 kts | 294° |
| 2026-04-18 04:45 | 42.32409 | -0.55356 | 32194 ft | 421 kts | 294° |
| 2026-04-18 04:46 | 42.34987 | -0.62414 | 32195 ft | 420 kts | 294° |
| 2026-04-18 04:46 | 42.37564 | -0.69518 | 32195 ft | 421 kts | 293° |
| 2026-04-18 04:47 | 42.40118 | -0.76602 | 32191 ft | 421 kts | 293° |
| 2026-04-18 04:47 | 42.42690 | -0.83731 | 32193 ft | 421 kts | 294° |
| 2026-04-18 04:48 | 42.45233 | -0.90783 | 32197 ft | 421 kts | 294° |
| 2026-04-18 04:48 | 42.47797 | -0.97924 | 32201 ft | 421 kts | 293° |
| 2026-04-18 04:49 | 42.50351 | -1.05049 | 32203 ft | 421 kts | 293° |
| 2026-04-18 04:49 | 42.52896 | -1.12141 | 32199 ft | 421 kts | 293° |
| 2026-04-18 04:50 | 42.55447 | -1.19287 | 32202 ft | 420 kts | 293° |
| 2026-04-18 04:50 | 42.57974 | -1.26405 | 32193 ft | 420 kts | 293° |
| 2026-04-18 04:51 | 42.60497 | -1.33528 | 32197 ft | 420 kts | 293° |
| 2026-04-18 04:51 | 42.63029 | -1.40672 | 32195 ft | 420 kts | 293° |
| 2026-04-18 04:52 | 42.65550 | -1.47806 | 32189 ft | 420 kts | 293° |
| 2026-04-18 04:52 | 42.68063 | -1.54935 | 32193 ft | 420 kts | 293° |
| 2026-04-18 04:53 | 42.70575 | -1.62088 | 32192 ft | 420 kts | 293° |
| 2026-04-18 04:53 | 42.73150 | -1.69227 | 32185 ft | 422 kts | 295° |
| 2026-04-18 04:54 | 42.76150 | -1.76025 | 32190 ft | 423 kts | 300° |
| 2026-04-18 04:54 | 42.79311 | -1.82745 | 32191 ft | 423 kts | 300° |
| 2026-04-18 04:55 | 42.82468 | -1.89471 | 32197 ft | 423 kts | 300° |
| 2026-04-18 04:55 | 42.85625 | -1.96207 | 32207 ft | 423 kts | 300° |
| 2026-04-18 04:56 | 42.90377 | -2.06365 | 32212 ft | 423 kts | 300° |
| 2026-04-18 04:56 | 42.93523 | -2.13124 | 32209 ft | 422 kts | 300° |
| 2026-04-18 04:57 | 42.96660 | -2.19877 | 32207 ft | 422 kts | 300° |
| 2026-04-18 04:57 | 42.99793 | -2.26599 | 32213 ft | 423 kts | 300° |
| 2026-04-18 04:58 | 43.02972 | -2.33346 | 32211 ft | 423 kts | 300° |
| 2026-04-18 04:58 | 43.06158 | -2.40131 | 32209 ft | 423 kts | 300° |
| 2026-04-18 04:59 | 43.09302 | -2.46857 | 32208 ft | 423 kts | 300° |
| 2026-04-18 04:59 | 43.12468 | -2.53609 | 32207 ft | 423 kts | 300° |
| 2026-04-18 05:00 | 43.15644 | -2.60396 | 32218 ft | 422 kts | 300° |
| 2026-04-18 05:00 | 43.18790 | -2.67180 | 32219 ft | 422 kts | 299° |
| 2026-04-18 05:01 | 43.21904 | -2.73945 | 32232 ft | 422 kts | 299° |
| 2026-04-18 05:01 | 43.25035 | -2.80735 | 32235 ft | 421 kts | 299° |
| 2026-04-18 05:02 | 43.27941 | -2.87675 | 32240 ft | 419 kts | 294° |
| 2026-04-18 05:02 | 43.30257 | -2.94997 | 32240 ft | 417 kts | 288° |
| 2026-04-18 05:03 | 43.31943 | -3.02558 | 32238 ft | 415 kts | 281° |
| 2026-04-18 05:03 | 43.33143 | -3.10272 | 32234 ft | 415 kts | 279° |
| 2026-04-18 05:04 | 43.34285 | -3.18008 | 32235 ft | 415 kts | 279° |
| 2026-04-18 05:04 | 43.35430 | -3.25736 | 32224 ft | 414 kts | 279° |
| 2026-04-18 05:05 | 43.36561 | -3.33312 | 32221 ft | 392 kts | 279° |
| 2026-04-18 05:05 | 43.37109 | -3.36901 | 32230 ft | 381 kts | 279° |
| 2026-04-18 05:05 | 43.37645 | -3.40420 | 32231 ft | 380 kts | 279° |
| 2026-04-18 05:06 | 43.38183 | -3.43989 | 32013 ft | 380 kts | 279° |
| 2026-04-18 05:06 | 43.38719 | -3.47560 | 31750 ft | 381 kts | 279° |
| 2026-04-18 05:06 | 43.39246 | -3.51086 | 31502 ft | 381 kts | 279° |
| 2026-04-18 05:06 | 43.39771 | -3.54599 | 31193 ft | 377 kts | 279° |
| 2026-04-18 05:07 | 43.40290 | -3.58083 | 30828 ft | 370 kts | 279° |
| 2026-04-18 05:07 | 43.40800 | -3.61521 | 30441 ft | 366 kts | 279° |
| 2026-04-18 05:07 | 43.41304 | -3.64926 | 30188 ft | 365 kts | 279° |
| 2026-04-18 05:07 | 43.41807 | -3.68355 | 30027 ft | 366 kts | 279° |
| 2026-04-18 05:08 | 43.42310 | -3.71782 | 29900 ft | 366 kts | 279° |
| 2026-04-18 05:08 | 43.42806 | -3.75172 | 29724 ft | 363 kts | 279° |
| 2026-04-18 05:08 | 43.43305 | -3.78575 | 29209 ft | 363 kts | 278° |
| 2026-04-18 05:08 | 43.43800 | -3.81966 | 28511 ft | 366 kts | 279° |
| 2026-04-18 05:09 | 43.44303 | -3.85408 | 27979 ft | 369 kts | 279° |
| 2026-04-18 05:09 | 43.44774 | -3.88828 | 27514 ft | 370 kts | 277° |
| 2026-04-18 05:09 | 43.45131 | -3.92339 | 27056 ft | 371 kts | 274° |
| 2026-04-18 05:09 | 43.45373 | -3.95858 | 26615 ft | 371 kts | 273° |
| 2026-04-18 05:10 | 43.45598 | -3.99419 | 26176 ft | 372 kts | 273° |
| 2026-04-18 05:10 | 43.45815 | -4.02919 | 25742 ft | 373 kts | 273° |
| 2026-04-18 05:10 | 43.46035 | -4.06499 | 25287 ft | 375 kts | 273° |
| 2026-04-18 05:10 | 43.46254 | -4.10048 | 24813 ft | 376 kts | 272° |
| 2026-04-18 05:11 | 43.46474 | -4.13649 | 24350 ft | 377 kts | 272° |
| 2026-04-18 05:11 | 43.46691 | -4.17225 | 23902 ft | 378 kts | 272° |
| 2026-04-18 05:11 | 43.46904 | -4.20787 | 23448 ft | 379 kts | 272° |
| 2026-04-18 05:11 | 43.47120 | -4.24423 | 22986 ft | 380 kts | 272° |
| 2026-04-18 05:12 | 43.47335 | -4.28021 | 22523 ft | 381 kts | 272° |
| 2026-04-18 05:12 | 43.47551 | -4.31648 | 22033 ft | 383 kts | 273° |
| 2026-04-18 05:12 | 43.47758 | -4.35283 | 21542 ft | 384 kts | 272° |
| 2026-04-18 05:12 | 43.47937 | -4.38938 | 21072 ft | 385 kts | 272° |
| 2026-04-18 05:13 | 43.48107 | -4.42591 | 20576 ft | 386 kts | 272° |
| 2026-04-18 05:13 | 43.48280 | -4.46299 | 20053 ft | 388 kts | 272° |
| 2026-04-18 05:13 | 43.48454 | -4.50003 | 19560 ft | 390 kts | 272° |
| 2026-04-18 05:13 | 43.48647 | -4.53697 | 19067 ft | 379 kts | 272° |
| 2026-04-18 05:14 | 43.48845 | -4.57211 | 18581 ft | 360 kts | 272° |
| 2026-04-18 05:14 | 43.49034 | -4.60580 | 18120 ft | 348 kts | 272° |
| 2026-04-18 05:14 | 43.49211 | -4.63831 | 17677 ft | 338 kts | 272° |
| 2026-04-18 05:14 | 43.49381 | -4.66998 | 17238 ft | 331 kts | 272° |
| 2026-04-18 05:15 | 43.49546 | -4.70131 | 16789 ft | 325 kts | 272° |
| 2026-04-18 05:15 | 43.49708 | -4.73221 | 16399 ft | 324 kts | 272° |
| 2026-04-18 05:15 | 43.49867 | -4.76270 | 15946 ft | 322 kts | 272° |
| 2026-04-18 05:15 | 43.50024 | -4.79307 | 15536 ft | 320 kts | 272° |
| 2026-04-18 05:16 | 43.50183 | -4.82374 | 15137 ft | 318 kts | 272° |
| 2026-04-18 05:16 | 43.50337 | -4.85359 | 14744 ft | 317 kts | 272° |
| 2026-04-18 05:16 | 43.50496 | -4.88383 | 14318 ft | 316 kts | 272° |
| 2026-04-18 05:16 | 43.50666 | -4.91382 | 13896 ft | 315 kts | 273° |
| 2026-04-18 05:17 | 43.50838 | -4.94358 | 13492 ft | 314 kts | 273° |
| 2026-04-18 05:17 | 43.51009 | -4.97337 | 13121 ft | 313 kts | 273° |
| 2026-04-18 05:17 | 43.51180 | -5.00339 | 12671 ft | 313 kts | 273° |
| 2026-04-18 05:17 | 43.51345 | -5.03282 | 12314 ft | 312 kts | 273° |
| 2026-04-18 05:18 | 43.51511 | -5.06253 | 11867 ft | 312 kts | 273° |
| 2026-04-18 05:18 | 43.51675 | -5.09220 | 11455 ft | 310 kts | 272° |
| 2026-04-18 05:18 | 43.51836 | -5.12158 | 11071 ft | 309 kts | 272° |
| 2026-04-18 05:18 | 43.51995 | -5.15091 | 10689 ft | 307 kts | 272° |
| 2026-04-18 05:19 | 43.52152 | -5.18005 | 10364 ft | 302 kts | 272° |
| 2026-04-18 05:19 | 43.52305 | -5.20836 | 10306 ft | 287 kts | 272° |
| 2026-04-18 05:19 | 43.52448 | -5.23486 | 10230 ft | 274 kts | 272° |
| 2026-04-18 05:19 | 43.52587 | -5.26072 | 10190 ft | 274 kts | 272° |
| 2026-04-18 05:20 | 43.52726 | -5.28702 | 9911 ft | 275 kts | 272° |
| 2026-04-18 05:20 | 43.52801 | -5.31322 | 9455 ft | 276 kts | 266° |
| 2026-04-18 05:20 | 43.52605 | -5.33960 | 9037 ft | 276 kts | 258° |
| 2026-04-18 05:20 | 43.52220 | -5.36528 | 8644 ft | 275 kts | 257° |
| 2026-04-18 05:21 | 43.51805 | -5.39074 | 8304 ft | 273 kts | 256° |
| 2026-04-18 05:21 | 43.51389 | -5.41599 | 7962 ft | 272 kts | 256° |
| 2026-04-18 05:21 | 43.50973 | -5.44138 | 7597 ft | 267 kts | 256° |
| 2026-04-18 05:21 | 43.50576 | -5.46578 | 7278 ft | 254 kts | 257° |
| 2026-04-18 05:22 | 43.50203 | -5.48876 | 6991 ft | 245 kts | 256° |
| 2026-04-18 05:22 | 43.49837 | -5.51132 | 6695 ft | 241 kts | 256° |
| 2026-04-18 05:22 | 43.49471 | -5.53378 | 6398 ft | 237 kts | 256° |
| 2026-04-18 05:22 | 43.49117 | -5.55551 | 6190 ft | 232 kts | 256° |
| 2026-04-18 05:23 | 43.48765 | -5.57710 | 5916 ft | 231 kts | 256° |
| 2026-04-18 05:23 | 43.48417 | -5.59837 | 5704 ft | 229 kts | 257° |
| 2026-04-18 05:23 | 43.48072 | -5.61950 | 5662 ft | 219 kts | 257° |
| 2026-04-18 05:23 | 43.47776 | -5.63948 | 5665 ft | 209 kts | 263° |
| 2026-04-18 05:24 | 43.47710 | -5.65935 | 5598 ft | 210 kts | 272° |
| 2026-04-18 05:24 | 43.47919 | -5.67886 | 5475 ft | 203 kts | 282° |
| 2026-04-18 05:24 | 43.48319 | -5.69718 | 5199 ft | 200 kts | 289° |
| 2026-04-18 05:24 | 43.48794 | -5.71513 | 4917 ft | 198 kts | 290° |
| 2026-04-18 05:25 | 43.49258 | -5.73288 | 4632 ft | 195 kts | 289° |
| 2026-04-18 05:25 | 43.49683 | -5.75005 | 4378 ft | 185 kts | 289° |
| 2026-04-18 05:25 | 43.50080 | -5.76666 | 4129 ft | 178 kts | 289° |
| 2026-04-18 05:25 | 43.50452 | -5.78265 | 3895 ft | 173 kts | 289° |
| 2026-04-18 05:26 | 43.50807 | -5.79803 | 3674 ft | 166 kts | 289° |
| 2026-04-18 05:26 | 43.51148 | -5.81288 | 3447 ft | 158 kts | 290° |
| 2026-04-18 05:26 | 43.51466 | -5.82667 | 3239 ft | 148 kts | 290° |
| 2026-04-18 05:26 | 43.51772 | -5.83989 | 3058 ft | 144 kts | 290° |
| 2026-04-18 05:27 | 43.52079 | -5.85306 | 2886 ft | 143 kts | 290° |
| 2026-04-18 05:27 | 43.52383 | -5.86605 | 2710 ft | 143 kts | 290° |
| 2026-04-18 05:27 | 43.52687 | -5.87906 | 2528 ft | 144 kts | 290° |
| 2026-04-18 05:27 | 43.52996 | -5.89224 | 2345 ft | 143 kts | 290° |
| 2026-04-18 05:28 | 43.53300 | -5.90516 | 2149 ft | 142 kts | 289° |
| 2026-04-18 05:28 | 43.53602 | -5.91800 | 1956 ft | 142 kts | 289° |
| 2026-04-18 05:28 | 43.53909 | -5.93102 | 1767 ft | 142 kts | 289° |
| 2026-04-18 05:28 | 43.54208 | -5.94380 | 1578 ft | 140 kts | 290° |
| 2026-04-18 05:29 | 43.54509 | -5.95651 | 1384 ft | 139 kts | 289° |
| 2026-04-18 05:29 | 43.54807 | -5.96911 | 1186 ft | 138 kts | 289° |
| 2026-04-18 05:29 | 43.55103 | -5.98155 | 1023 ft | 138 kts | 289° |
| 2026-04-18 05:29 | 43.55394 | -5.99396 | 831 ft | 135 kts | 290° |
| 2026-04-18 05:30 | 43.55688 | -6.00627 | 645 ft | 136 kts | 289° |
| 2026-04-18 05:30 | 43.55980 | -6.01874 | 473 ft | 135 kts | 289° |
| 2026-04-18 05:30 | 43.56253 | -6.03022 | 417 ft | 98 kts | 287° |
| 2026-04-18 05:30 | 43.56392 | -6.03612 | 416 ft | 43 kts | 287° |
| 2026-04-18 05:31 | 43.56454 | -6.03873 | 409 ft | 31 kts | 288° |
| 2026-04-18 05:31 | 43.56492 | -6.04120 | 403 ft | 25 kts | 271° |
| 2026-04-18 05:31 | 43.56479 | -6.04307 | 399 ft | 10 kts | 258° |
| 2026-04-18 05:31 | 43.56442 | -6.04372 | 397 ft | 8 kts | 191° |
| 2026-04-18 05:32 | 43.56394 | -6.04330 | 399 ft | 8 kts | 113° |
| 2026-04-18 05:32 | 43.56372 | -6.04235 | 402 ft | 13 kts | 107° |